Time,TemperatureF,DewpointF,PressureIn,WindDirection,WindDirectionDegrees,WindSpeedMPH,WindSpeedGustMPH,Humidity,HourlyPrecipIn,Conditions,Clouds,dailyrainin,SoftwareType,DateUTC
2013-03-16 00:03:00,26.4,22.2,29.70,North,0,0.0,-999.0,84,0.00,,,-99.99,,2013-03-16 08:03:00,
2013-03-16 00:08:00,26.1,21.9,29.70,North,0,0.0,-999.0,83,0.00,,,-99.99,,2013-03-16 08:08:00,
2013-03-16 00:13:00,26.0,22.0,29.70,North,0,0.0,-999.0,84,0.00,,,-99.99,,2013-03-16 08:13:00,
2013-03-16 00:18:00,26.1,21.9,29.70,North,0,0.0,-999.0,83,0.00,,,-99.99,,2013-03-16 08:18:00,
2013-03-16 00:23:00,26.1,21.8,29.70,North,0,0.0,-999.0,83,0.00,,,-99.99,,2013-03-16 08:23:00,
2013-03-16 00:28:00,26.0,21.8,29.70,North,0,0.0,-999.0,84,0.00,,,-99.99,,2013-03-16 08:28:00,
2013-03-16 00:33:00,25.8,21.6,29.70,North,0,0.0,-999.0,83,0.00,,,-99.99,,2013-03-16 08:33:00,
2013-03-16 00:38:00,25.9,21.6,29.70,North,0,0.0,-999.0,83,0.00,,,-99.99,,2013-03-16 08:38:00,
2013-03-16 00:43:00,25.7,21.6,29.70,North,0,0.0,-999.0,84,0.00,,,-99.99,,2013-03-16 08:43:00,
2013-03-16 00:48:00,25.8,21.7,29.70,North,0,0.0,-999.0,84,0.00,,,-99.99,,2013-03-16 08:48:00,
2013-03-16 00:53:00,25.8,21.7,29.70,North,0,0.0,-999.0,84,0.00,,,-99.99,,2013-03-16 08:53:00,
2013-03-16 00:58:00,25.7,21.5,29.70,North,0,0.0,-999.0,84,0.00,,,-99.99,,2013-03-16 08:58:00,
2013-03-16 01:03:00,25.5,21.4,29.72,North,0,0.0,-999.0,84,0.00,,,-99.99,,2013-03-16 09:03:00,
2013-03-16 01:08:00,25.7,21.5,29.72,North,0,0.0,-999.0,83,0.00,,,-99.99,,2013-03-16 09:08:00,
2013-03-16 01:13:00,26.0,21.6,29.72,North,0,0.0,-999.0,83,0.00,,,-99.99,,2013-03-16 09:13:00,
2013-03-16 01:18:00,25.7,21.2,29.72,North,0,0.0,-999.0,83,0.00,,,-99.99,,2013-03-16 09:18:00,
2013-03-16 01:23:00,25.7,21.3,29.72,North,0,0.0,-999.0,83,0.00,,,-99.99,,2013-03-16 09:23:00,
2013-03-16 01:28:00,25.5,21.3,29.72,North,0,0.0,-999.0,83,0.00,,,-99.99,,2013-03-16 09:28:00,
2013-03-16 01:33:00,25.7,21.4,29.72,North,0,0.0,-999.0,83,0.00,,,-99.99,,2013-03-16 09:33:00,
2013-03-16 01:38:00,25.5,21.2,29.72,North,0,0.0,-999.0,83,0.00,,,-99.99,,2013-03-16 09:38:00,
2013-03-16 01:43:00,25.4,21.2,29.72,North,0,0.0,-999.0,83,0.00,,,-99.99,,2013-03-16 09:43:00,
2013-03-16 01:48:00,25.3,21.1,29.72,North,0,0.0,-999.0,83,0.00,,,-99.99,,2013-03-16 09:48:00,
2013-03-16 01:53:00,25.1,20.9,29.72,North,0,0.0,-999.0,83,0.00,,,-99.99,,2013-03-16 09:53:00,
2013-03-16 01:58:00,25.0,21.0,29.72,North,0,0.0,-999.0,84,0.00,,,-99.99,,2013-03-16 09:58:00,
2013-03-16 02:03:00,25.1,21.3,29.73,North,0,0.0,-999.0,85,0.00,,,-99.99,,2013-03-16 10:03:00,
2013-03-16 02:08:00,24.7,21.1,29.73,North,0,0.0,-999.0,85,0.00,,,-99.99,,2013-03-16 10:08:00,
2013-03-16 02:13:00,24.6,21.0,29.73,North,0,0.0,-999.0,85,0.00,,,-99.99,,2013-03-16 10:13:00,
2013-03-16 02:18:00,24.7,21.1,29.73,North,0,0.0,-999.0,86,0.00,,,-99.99,,2013-03-16 10:18:00,
2013-03-16 02:23:00,24.7,21.2,29.73,North,0,0.0,-999.0,86,0.00,,,-99.99,,2013-03-16 10:23:00,
2013-03-16 02:28:00,24.8,21.3,29.73,North,0,0.0,-999.0,86,0.00,,,-99.99,,2013-03-16 10:28:00,
2013-03-16 02:33:00,24.9,21.5,29.73,North,0,0.0,-999.0,86,0.00,,,-99.99,,2013-03-16 10:33:00,
2013-03-16 02:38:00,25.0,21.6,29.73,North,0,0.0,-999.0,86,0.00,,,-99.99,,2013-03-16 10:38:00,
2013-03-16 02:43:00,25.2,21.8,29.73,North,0,0.0,-999.0,86,0.00,,,-99.99,,2013-03-16 10:43:00,
2013-03-16 02:48:00,25.4,21.8,29.73,North,0,0.0,-999.0,86,0.00,,,-99.99,,2013-03-16 10:48:00,
2013-03-16 02:53:00,25.5,21.7,29.73,North,0,0.0,-999.0,85,0.00,,,-99.99,,2013-03-16 10:53:00,
2013-03-16 02:58:00,25.7,22.0,29.73,North,0,0.0,-999.0,85,0.00,,,-99.99,,2013-03-16 10:58:00,
2013-03-16 03:03:00,25.7,21.9,29.74,North,0,0.0,-999.0,85,0.00,,,-99.99,,2013-03-16 11:03:00,
2013-03-16 03:09:00,25.9,22.0,29.74,North,0,0.0,-999.0,85,0.00,,,-99.99,,2013-03-16 11:09:00,
2013-03-16 03:14:00,25.7,21.8,29.74,North,0,0.0,-999.0,84,0.00,,,-99.99,,2013-03-16 11:14:00,
2013-03-16 03:19:00,26.0,22.1,29.74,North,0,0.0,-999.0,85,0.00,,,-99.99,,2013-03-16 11:19:00,
2013-03-16 03:24:00,25.9,22.0,29.74,North,0,0.0,-999.0,84,0.00,,,-99.99,,2013-03-16 11:24:00,
2013-03-16 03:29:00,25.9,21.9,29.74,North,0,0.0,-999.0,84,0.00,,,-99.99,,2013-03-16 11:29:00,
2013-03-16 03:34:00,25.7,21.6,29.74,North,0,0.0,-999.0,84,0.00,,,-99.99,,2013-03-16 11:34:00,
2013-03-16 03:39:00,25.7,21.6,29.74,North,0,0.0,-999.0,84,0.00,,,-99.99,,2013-03-16 11:39:00,
2013-03-16 03:44:00,25.7,21.6,29.74,North,0,0.0,-999.0,84,0.00,,,-99.99,,2013-03-16 11:44:00,
2013-03-16 03:49:00,25.5,21.4,29.74,North,0,0.0,-999.0,84,0.00,,,-99.99,,2013-03-16 11:49:00,
2013-03-16 03:54:00,25.5,21.5,29.74,North,0,0.0,-999.0,84,0.00,,,-99.99,,2013-03-16 11:54:00,
2013-03-16 03:59:00,25.5,21.5,29.75,North,0,0.0,-999.0,84,0.00,,,-99.99,,2013-03-16 11:59:00,
2013-03-16 04:04:00,25.4,21.4,29.75,North,0,0.0,-999.0,84,0.00,,,-99.99,,2013-03-16 12:04:00,
2013-03-16 04:09:00,25.4,21.4,29.75,North,0,0.0,-999.0,84,0.00,,,-99.99,,2013-03-16 12:09:00,
2013-03-16 04:14:00,25.2,21.3,29.75,North,0,0.0,-999.0,84,0.00,,,-99.99,,2013-03-16 12:14:00,
2013-03-16 04:19:00,24.9,21.0,29.75,North,0,0.0,-999.0,84,0.00,,,-99.99,,2013-03-16 12:19:00,
2013-03-16 04:24:00,24.9,21.0,29.75,North,0,0.0,-999.0,85,0.00,,,-99.99,,2013-03-16 12:24:00,
2013-03-16 04:29:00,24.9,21.1,29.75,North,0,0.0,-999.0,85,0.00,,,-99.99,,2013-03-16 12:29:00,
2013-03-16 04:34:00,24.7,21.0,29.75,North,0,0.0,-999.0,85,0.00,,,-99.99,,2013-03-16 12:34:00,
2013-03-16 04:39:00,24.9,21.2,29.75,North,0,0.0,-999.0,85,0.00,,,-99.99,,2013-03-16 12:39:00,
2013-03-16 04:44:00,25.0,21.2,29.75,North,0,0.0,-999.0,85,0.00,,,-99.99,,2013-03-16 12:44:00,
2013-03-16 04:49:00,25.0,21.0,29.75,North,0,0.0,-999.0,84,0.00,,,-99.99,,2013-03-16 12:49:00,
2013-03-16 04:54:00,24.8,20.8,29.75,North,0,0.0,-999.0,84,0.00,,,-99.99,,2013-03-16 12:54:00,
2013-03-16 04:59:00,24.7,20.8,29.76,North,0,0.0,-999.0,84,0.00,,,-99.99,,2013-03-16 12:59:00,
2013-03-16 05:04:00,24.8,21.0,29.76,North,0,0.0,-999.0,85,0.00,,,-99.99,,2013-03-16 13:04:00,
2013-03-16 05:09:00,25.0,21.1,29.76,North,0,0.0,-999.0,84,0.00,,,-99.99,,2013-03-16 13:09:00,
2013-03-16 05:14:00,25.0,21.1,29.76,North,0,0.0,-999.0,85,0.00,,,-99.99,,2013-03-16 13:14:00,
2013-03-16 05:19:00,25.0,21.1,29.76,North,0,0.0,-999.0,84,0.00,,,-99.99,,2013-03-16 13:19:00,
2013-03-16 05:24:00,24.7,20.9,29.76,North,0,0.0,-999.0,84,0.00,,,-99.99,,2013-03-16 13:24:00,
2013-03-16 05:29:00,24.9,21.1,29.76,North,0,0.0,-999.0,85,0.00,,,-99.99,,2013-03-16 13:29:00,
2013-03-16 05:34:00,24.8,21.1,29.76,North,0,0.0,-999.0,85,0.00,,,-99.99,,2013-03-16 13:34:00,
2013-03-16 05:39:00,24.5,20.6,29.76,North,0,0.0,-999.0,84,0.00,,,-99.99,,2013-03-16 13:39:00,
2013-03-16 05:44:00,24.2,20.4,29.76,North,0,0.0,-999.0,85,0.00,,,-99.99,,2013-03-16 13:44:00,
2013-03-16 05:49:00,24.2,20.6,29.76,North,0,0.0,-999.0,85,0.00,,,-99.99,,2013-03-16 13:49:00,
2013-03-16 05:54:00,24.1,20.6,29.76,North,0,0.0,-999.0,86,0.00,,,-99.99,,2013-03-16 13:54:00,
2013-03-16 05:59:00,23.9,20.3,29.77,North,0,0.0,-999.0,85,0.00,,,-99.99,,2013-03-16 13:59:00,
2013-03-16 06:04:00,23.9,20.3,29.77,North,0,0.0,-999.0,86,0.00,,,-99.99,,2013-03-16 14:04:00,
2013-03-16 06:09:00,24.0,20.5,29.77,North,0,0.0,-999.0,86,0.00,,,-99.99,,2013-03-16 14:09:00,
2013-03-16 06:14:00,23.7,20.3,29.77,North,0,0.0,-999.0,86,0.00,,,-99.99,,2013-03-16 14:14:00,
2013-03-16 06:19:00,23.6,20.2,29.77,North,0,0.0,-999.0,86,0.00,,,-99.99,,2013-03-16 14:19:00,
2013-03-16 06:24:00,23.6,20.4,29.77,North,0,0.0,-999.0,87,0.00,,,-99.99,,2013-03-16 14:24:00,
2013-03-16 06:29:00,23.6,20.3,29.77,North,0,0.0,-999.0,86,0.00,,,-99.99,,2013-03-16 14:29:00,
2013-03-16 06:34:00,23.5,20.3,29.77,North,0,0.0,-999.0,87,0.00,,,-99.99,,2013-03-16 14:34:00,
2013-03-16 06:39:00,23.5,20.2,29.77,North,0,0.0,-999.0,86,0.00,,,-99.99,,2013-03-16 14:39:00,
2013-03-16 06:44:00,24.0,20.8,29.77,North,0,0.0,-999.0,87,0.00,,,-99.99,,2013-03-16 14:44:00,
2013-03-16 06:49:00,24.0,20.8,29.77,North,0,0.0,-999.0,87,0.00,,,-99.99,,2013-03-16 14:49:00,
2013-03-16 06:54:00,24.0,20.7,29.77,North,0,0.0,-999.0,87,0.00,,,-99.99,,2013-03-16 14:54:00,
2013-03-16 06:59:00,24.0,20.7,29.77,North,0,0.0,-999.0,87,0.00,,,-99.99,,2013-03-16 14:59:00,
2013-03-16 07:04:00,24.2,21.1,29.77,North,0,0.0,-999.0,87,0.00,,,-99.99,,2013-03-16 15:04:00,
2013-03-16 07:09:00,24.3,21.2,29.77,North,0,0.0,-999.0,87,0.00,,,-99.99,,2013-03-16 15:09:00,
2013-03-16 07:14:00,24.4,21.2,29.77,North,0,0.0,-999.0,87,0.00,,,-99.99,,2013-03-16 15:14:00,
2013-03-16 07:19:00,24.5,21.4,29.77,North,0,0.0,-999.0,87,0.00,,,-99.99,,2013-03-16 15:19:00,
2013-03-16 07:24:00,24.5,21.1,29.77,North,0,0.0,-999.0,86,0.00,,,-99.99,,2013-03-16 15:24:00,
2013-03-16 07:29:00,24.7,21.4,29.77,North,0,0.0,-999.0,86,0.00,,,-99.99,,2013-03-16 15:29:00,
2013-03-16 07:34:00,24.7,21.4,29.77,North,0,0.0,-999.0,86,0.00,,,-99.99,,2013-03-16 15:34:00,
2013-03-16 07:39:00,24.9,21.5,29.77,North,0,0.0,-999.0,87,0.00,,,-99.99,,2013-03-16 15:39:00,
2013-03-16 07:44:00,24.8,21.4,29.77,North,0,0.0,-999.0,86,0.00,,,-99.99,,2013-03-16 15:44:00,
2013-03-16 07:49:00,24.8,21.4,29.77,North,0,0.0,-999.0,86,0.00,,,-99.99,,2013-03-16 15:49:00,
2013-03-16 07:54:00,24.9,21.5,29.77,North,0,0.0,-999.0,86,0.00,,,-99.99,,2013-03-16 15:54:00,
2013-03-16 07:59:00,25.1,21.9,29.79,North,0,0.0,-999.0,87,0.00,,,-99.99,,2013-03-16 15:59:00,
2013-03-16 08:04:00,25.4,22.1,29.79,North,0,0.0,-999.0,87,0.00,,,-99.99,,2013-03-16 16:04:00,
2013-03-16 08:09:00,25.4,22.2,29.79,North,0,0.0,-999.0,87,0.00,,,-99.99,,2013-03-16 16:09:00,
2013-03-16 08:14:00,25.3,22.0,29.79,North,0,0.0,-999.0,87,0.00,,,-99.99,,2013-03-16 16:14:00,
2013-03-16 08:20:00,25.5,22.2,29.79,North,0,0.0,-999.0,87,0.00,,,-99.99,,2013-03-16 16:20:00,
2013-03-16 08:25:00,25.6,22.3,29.79,North,0,0.0,-999.0,87,0.00,,,-99.99,,2013-03-16 16:25:00,
2013-03-16 08:30:00,25.6,22.3,29.79,North,0,0.0,-999.0,87,0.00,,,-99.99,,2013-03-16 16:30:00,
2013-03-16 08:35:00,25.7,22.4,29.79,North,0,0.0,-999.0,87,0.00,,,-99.99,,2013-03-16 16:35:00,
2013-03-16 08:40:00,25.7,22.2,29.79,North,0,0.0,-999.0,86,0.00,,,-99.99,,2013-03-16 16:40:00,
2013-03-16 08:45:00,26.0,22.8,29.79,North,0,0.0,-999.0,87,0.00,,,-99.99,,2013-03-16 16:45:00,
2013-03-16 08:50:00,26.0,22.8,29.79,North,0,0.0,-999.0,87,0.00,,,-99.99,,2013-03-16 16:50:00,
2013-03-16 08:55:00,26.0,22.8,29.79,North,0,0.0,-999.0,87,0.00,,,-99.99,,2013-03-16 16:55:00,
2013-03-16 09:00:00,26.1,22.9,29.81,North,0,0.0,-999.0,87,0.00,,,-99.99,,2013-03-16 17:00:00,
2013-03-16 09:05:00,26.2,22.9,29.81,North,0,0.0,-999.0,87,0.00,,,-99.99,,2013-03-16 17:05:00,
2013-03-16 09:10:00,26.3,23.1,29.81,North,0,0.0,-999.0,87,0.00,,,-99.99,,2013-03-16 17:10:00,
2013-03-16 09:15:00,26.4,23.0,29.81,North,0,0.0,-999.0,86,0.00,,,-99.99,,2013-03-16 17:15:00,
2013-03-16 09:20:00,26.5,23.1,29.81,North,0,0.0,-999.0,86,0.00,,,-99.99,,2013-03-16 17:20:00,
2013-03-16 09:25:00,26.8,23.5,29.81,North,0,0.0,-999.0,86,0.00,,,-99.99,,2013-03-16 17:25:00,
2013-03-16 09:30:00,27.0,23.6,29.81,North,0,0.0,-999.0,86,0.00,,,-99.99,,2013-03-16 17:30:00,
2013-03-16 09:35:00,27.1,23.7,29.81,North,0,0.0,-999.0,86,0.00,,,-99.99,,2013-03-16 17:35:00,
2013-03-16 09:40:00,27.0,23.5,29.81,North,0,0.0,-999.0,86,0.00,,,-99.99,,2013-03-16 17:40:00,
2013-03-16 09:45:00,27.3,23.7,29.81,North,0,0.0,-999.0,86,0.00,,,-99.99,,2013-03-16 17:45:00,
2013-03-16 09:50:00,27.6,24.0,29.81,North,0,0.0,-999.0,86,0.00,,,-99.99,,2013-03-16 17:50:00,
2013-03-16 09:55:00,27.7,23.9,29.81,North,0,0.0,-999.0,85,0.00,,,-99.99,,2013-03-16 17:55:00,
2013-03-16 10:00:00,27.8,23.9,29.83,North,0,0.0,-999.0,85,0.00,,,-99.99,,2013-03-16 18:00:00,
2013-03-16 10:05:00,28.4,24.7,29.83,North,0,0.0,-999.0,85,0.00,,,-99.99,,2013-03-16 18:05:00,
2013-03-16 10:10:00,29.0,24.7,29.83,North,0,0.0,-999.0,83,0.00,,,-99.99,,2013-03-16 18:10:00,
2013-03-16 10:15:00,29.0,24.5,29.83,North,0,0.0,-999.0,83,0.00,,,-99.99,,2013-03-16 18:15:00,
2013-03-16 10:20:00,29.3,25.2,29.83,North,0,0.0,-999.0,84,0.00,,,-99.99,,2013-03-16 18:20:00,
2013-03-16 10:25:00,29.2,25.1,29.83,North,0,0.0,-999.0,84,0.00,,,-99.99,,2013-03-16 18:25:00,
2013-03-16 10:30:00,29.4,25.2,29.83,North,0,0.0,-999.0,84,0.00,,,-99.99,,2013-03-16 18:30:00,
2013-03-16 10:35:00,30.0,25.4,29.83,North,0,0.0,-999.0,82,0.00,,,-99.99,,2013-03-16 18:35:00,
2013-03-16 10:40:00,30.5,25.8,29.83,North,0,0.0,-999.0,82,0.00,,,-99.99,,2013-03-16 18:40:00,
2013-03-16 10:45:00,31.0,25.8,29.83,North,0,0.0,-999.0,80,0.00,,,-99.99,,2013-03-16 18:45:00,
2013-03-16 10:50:00,31.9,25.8,29.83,North,0,0.0,-999.0,77,0.00,,,-99.99,,2013-03-16 18:50:00,
2013-03-16 10:55:00,32.8,25.5,29.83,North,0,0.0,-999.0,74,0.00,,,-99.99,,2013-03-16 18:55:00,
2013-03-16 11:00:00,33.2,26.2,29.84,North,0,0.0,-999.0,75,0.00,,,-99.99,,2013-03-16 19:00:00,
2013-03-16 11:05:00,33.1,25.0,29.84,North,0,0.0,-999.0,71,0.00,,,-99.99,,2013-03-16 19:05:00,
2013-03-16 11:10:00,33.0,25.0,29.84,North,0,0.0,-999.0,71,0.00,,,-99.99,,2013-03-16 19:10:00,
2013-03-16 11:15:00,32.8,24.6,29.84,North,0,0.0,-999.0,71,0.00,,,-99.99,,2013-03-16 19:15:00,
2013-03-16 11:20:00,32.9,25.6,29.84,North,0,0.0,-999.0,74,0.00,,,-99.99,,2013-03-16 19:20:00,
2013-03-16 11:25:00,32.6,25.6,29.84,North,0,0.0,-999.0,75,0.00,,,-99.99,,2013-03-16 19:25:00,
2013-03-16 11:30:00,32.3,25.2,29.84,North,0,0.0,-999.0,74,0.00,,,-99.99,,2013-03-16 19:30:00,
2013-03-16 11:35:00,32.2,24.9,29.84,North,0,0.0,-999.0,74,0.00,,,-99.99,,2013-03-16 19:35:00,
2013-03-16 11:40:00,32.3,24.7,29.84,North,0,0.0,-999.0,73,0.00,,,-99.99,,2013-03-16 19:40:00,
2013-03-16 11:45:00,32.6,23.8,29.84,North,0,0.0,-999.0,69,0.00,,,-99.99,,2013-03-16 19:45:00,
2013-03-16 11:50:00,33.2,25.3,29.84,North,0,0.0,-999.0,72,0.00,,,-99.99,,2013-03-16 19:50:00,
2013-03-16 11:55:00,33.6,24.9,29.84,North,0,0.0,-999.0,70,0.00,,,-99.99,,2013-03-16 19:55:00,
2013-03-16 12:02:00,33.3,24.0,29.86,North,0,0.0,-999.0,68,0.00,,,-99.99,,2013-03-16 20:02:00,
2013-03-16 12:08:00,33.6,24.5,29.86,North,0,0.0,-999.0,68,0.00,,,-99.99,,2013-03-16 20:08:00,
2013-03-16 12:13:00,33.8,25.1,29.86,North,0,0.0,-999.0,70,0.00,,,-99.99,,2013-03-16 20:13:00,
2013-03-16 12:18:00,33.6,25.0,29.86,North,0,0.0,-999.0,70,0.00,,,-99.99,,2013-03-16 20:18:00,
2013-03-16 12:23:00,33.0,24.6,29.86,North,0,0.0,-999.0,70,0.00,,,-99.99,,2013-03-16 20:23:00,
2013-03-16 12:28:00,33.5,25.0,29.86,North,0,0.0,-999.0,70,0.00,,,-99.99,,2013-03-16 20:28:00,
2013-03-16 12:33:00,34.2,25.3,29.86,North,0,0.0,-999.0,69,0.00,,,-99.99,,2013-03-16 20:33:00,
2013-03-16 12:40:00,34.7,25.3,29.86,North,0,0.0,-999.0,68,0.00,,,-99.99,,2013-03-16 20:40:00,
2013-03-16 12:45:00,34.5,24.3,29.86,North,0,0.0,-999.0,65,0.00,,,-99.99,,2013-03-16 20:45:00,
2013-03-16 12:50:00,34.5,24.2,29.86,North,0,0.0,-999.0,65,0.00,,,-99.99,,2013-03-16 20:50:00,
2013-03-16 12:55:00,34.8,25.2,29.86,North,0,0.0,-999.0,67,0.00,,,-99.99,,2013-03-16 20:55:00,
2013-03-16 13:00:00,35.0,24.1,29.87,North,0,0.0,-999.0,64,0.00,,,-99.99,,2013-03-16 21:00:00,
2013-03-16 13:05:00,35.4,24.5,29.87,North,0,0.0,-999.0,63,0.00,,,-99.99,,2013-03-16 21:05:00,
2013-03-16 13:10:00,36.1,25.0,29.87,North,0,0.0,-999.0,63,0.00,,,-99.99,,2013-03-16 21:10:00,
2013-03-16 13:15:00,37.0,25.5,29.87,North,0,0.0,-999.0,62,0.00,,,-99.99,,2013-03-16 21:15:00,
2013-03-16 13:20:00,37.0,25.5,29.87,North,0,0.0,-999.0,62,0.00,,,-99.99,,2013-03-16 21:20:00,
2013-03-16 13:25:00,37.8,25.5,29.87,North,0,0.0,-999.0,60,0.00,,,-99.99,,2013-03-16 21:25:00,
2013-03-16 13:30:00,37.2,25.1,29.87,North,0,0.0,-999.0,61,0.00,,,-99.99,,2013-03-16 21:30:00,
2013-03-16 13:35:00,37.1,24.3,29.87,North,0,0.0,-999.0,59,0.00,,,-99.99,,2013-03-16 21:35:00,
2013-03-16 13:40:00,37.1,26.0,29.87,North,0,0.0,-999.0,63,0.00,,,-99.99,,2013-03-16 21:40:00,
2013-03-16 13:45:00,36.3,24.0,29.87,North,0,0.0,-999.0,60,0.00,,,-99.99,,2013-03-16 21:45:00,
2013-03-16 13:50:00,34.9,25.0,29.87,North,0,0.0,-999.0,66,0.00,,,-99.99,,2013-03-16 21:50:00,
2013-03-16 13:55:00,34.0,23.9,29.87,North,0,0.0,-999.0,66,0.00,,,-99.99,,2013-03-16 21:55:00,
2013-03-16 14:00:00,34.1,24.2,29.88,North,0,0.0,-999.0,66,0.00,,,-99.99,,2013-03-16 22:00:00,
2013-03-16 14:05:00,34.7,24.9,29.88,North,0,0.0,-999.0,67,0.00,,,-99.99,,2013-03-16 22:05:00,
2013-03-16 14:10:00,36.2,25.7,29.88,North,0,0.0,-999.0,65,0.00,,,-99.99,,2013-03-16 22:10:00,
2013-03-16 14:15:00,37.0,26.0,29.88,North,0,0.0,-999.0,64,0.00,,,-99.99,,2013-03-16 22:15:00,
2013-03-16 14:20:00,35.8,25.5,29.88,North,0,0.0,-999.0,65,0.00,,,-99.99,,2013-03-16 22:20:00,
2013-03-16 14:25:00,35.1,25.3,29.88,North,0,0.0,-999.0,67,0.00,,,-99.99,,2013-03-16 22:25:00,
2013-03-16 14:30:00,35.4,25.2,29.88,North,0,0.0,-999.0,66,0.00,,,-99.99,,2013-03-16 22:30:00,
2013-03-16 14:35:00,35.6,25.3,29.88,North,0,0.0,-999.0,65,0.00,,,-99.99,,2013-03-16 22:35:00,
2013-03-16 14:40:00,35.5,25.0,29.88,North,0,0.0,-999.0,65,0.00,,,-99.99,,2013-03-16 22:40:00,
2013-03-16 14:45:00,34.9,25.1,29.88,North,0,0.0,-999.0,67,0.00,,,-99.99,,2013-03-16 22:45:00,
2013-03-16 14:50:00,35.9,23.8,29.88,North,0,0.0,-999.0,61,0.00,,,-99.99,,2013-03-16 22:50:00,
2013-03-16 14:55:00,36.0,24.3,29.88,North,0,0.0,-999.0,62,0.00,,,-99.99,,2013-03-16 22:55:00,
2013-03-16 15:00:00,36.6,24.7,29.89,North,0,0.0,-999.0,61,0.00,,,-99.99,,2013-03-16 23:00:00,
2013-03-16 15:05:00,36.1,23.5,29.89,North,0,0.0,-999.0,59,0.00,,,-99.99,,2013-03-16 23:05:00,
2013-03-16 15:10:00,36.3,24.6,29.89,North,0,0.0,-999.0,62,0.00,,,-99.99,,2013-03-16 23:10:00,
2013-03-16 15:15:00,36.6,25.8,29.89,North,0,0.0,-999.0,64,0.00,,,-99.99,,2013-03-16 23:15:00,
2013-03-16 15:20:00,36.5,24.2,29.89,North,0,0.0,-999.0,60,0.00,,,-99.99,,2013-03-16 23:20:00,
2013-03-16 15:26:00,36.8,23.0,29.89,North,0,0.0,-999.0,56,0.00,,,-99.99,,2013-03-16 23:26:00,
2013-03-16 15:31:00,36.3,24.5,29.89,North,0,0.0,-999.0,61,0.00,,,-99.99,,2013-03-16 23:31:00,
2013-03-16 15:37:00,36.7,24.6,29.89,North,0,0.0,-999.0,61,0.00,,,-99.99,,2013-03-16 23:37:00,
2013-03-16 15:42:00,36.2,24.0,29.89,North,0,0.0,-999.0,60,0.00,,,-99.99,,2013-03-16 23:42:00,
2013-03-16 15:47:00,36.1,24.0,29.89,North,0,0.0,-999.0,61,0.00,,,-99.99,,2013-03-16 23:47:00,
2013-03-16 15:52:00,36.0,24.4,29.89,North,0,0.0,-999.0,62,0.00,,,-99.99,,2013-03-16 23:52:00,
2013-03-16 15:57:00,35.9,24.0,29.89,North,0,0.0,-999.0,61,0.00,,,-99.99,,2013-03-16 23:57:00,
2013-03-16 16:02:00,36.1,24.9,29.90,North,0,0.0,-999.0,63,0.00,,,-99.99,,2013-03-17 00:02:00,
2013-03-16 16:08:00,35.8,24.7,29.90,North,0,0.0,-999.0,63,0.00,,,-99.99,,2013-03-17 00:08:00,
2013-03-16 16:13:00,35.7,24.5,29.90,North,0,0.0,-999.0,63,0.00,,,-99.99,,2013-03-17 00:13:00,
2013-03-16 16:18:00,35.6,24.1,29.90,North,0,0.0,-999.0,62,0.00,,,-99.99,,2013-03-17 00:18:00,
2013-03-16 16:23:00,35.7,24.3,29.90,North,0,0.0,-999.0,62,0.00,,,-99.99,,2013-03-17 00:23:00,
2013-03-16 16:28:00,35.6,23.9,29.90,North,0,0.0,-999.0,62,0.00,,,-99.99,,2013-03-17 00:28:00,
2013-03-16 16:33:00,35.5,23.2,29.90,North,0,0.0,-999.0,60,0.00,,,-99.99,,2013-03-17 00:33:00,
2013-03-16 16:38:00,35.6,25.1,29.90,North,0,0.0,-999.0,65,0.00,,,-99.99,,2013-03-17 00:38:00,
2013-03-16 16:43:00,35.7,25.8,29.90,North,0,0.0,-999.0,67,0.00,,,-99.99,,2013-03-17 00:43:00,
2013-03-16 16:49:00,35.6,23.7,29.90,North,0,0.0,-999.0,61,0.00,,,-99.99,,2013-03-17 00:49:00,
2013-03-16 16:54:00,35.4,25.5,29.90,North,0,0.0,-999.0,66,0.00,,,-99.99,,2013-03-17 00:54:00,
2013-03-16 16:59:00,35.3,25.8,29.92,North,0,0.0,-999.0,68,0.00,,,-99.99,,2013-03-17 00:59:00,
2013-03-16 17:04:00,35.0,24.0,29.92,North,0,0.0,-999.0,63,0.00,,,-99.99,,2013-03-17 01:04:00,
2013-03-16 17:09:00,35.0,25.9,29.92,North,0,0.0,-999.0,68,0.00,,,-99.99,,2013-03-17 01:09:00,
2013-03-16 17:14:00,35.0,25.8,29.92,North,0,0.0,-999.0,68,0.00,,,-99.99,,2013-03-17 01:14:00,
2013-03-16 17:19:00,34.7,26.1,29.92,North,0,0.0,-999.0,70,0.00,,,-99.99,,2013-03-17 01:19:00,
2013-03-16 17:24:00,34.7,26.5,29.92,North,0,0.0,-999.0,71,0.00,,,-99.99,,2013-03-17 01:24:00,
2013-03-16 17:29:00,34.5,25.6,29.92,North,0,0.0,-999.0,69,0.00,,,-99.99,,2013-03-17 01:29:00,
2013-03-16 17:34:00,34.2,26.0,29.92,North,0,0.0,-999.0,71,0.00,,,-99.99,,2013-03-17 01:34:00,
2013-03-16 17:39:00,34.4,26.9,29.92,North,0,0.0,-999.0,73,0.00,,,-99.99,,2013-03-17 01:39:00,
2013-03-16 17:44:00,34.2,26.2,29.92,North,0,0.0,-999.0,72,0.00,,,-99.99,,2013-03-17 01:44:00,
2013-03-16 17:49:00,34.2,26.5,29.92,North,0,0.0,-999.0,72,0.00,,,-99.99,,2013-03-17 01:49:00,
2013-03-16 17:54:00,34.2,26.1,29.92,North,0,0.0,-999.0,71,0.00,,,-99.99,,2013-03-17 01:54:00,
2013-03-16 17:59:00,34.2,26.2,29.93,North,0,0.0,-999.0,72,0.00,,,-99.99,,2013-03-17 01:59:00,
2013-03-16 18:04:00,34.1,26.3,29.93,North,0,0.0,-999.0,72,0.00,,,-99.99,,2013-03-17 02:04:00,
2013-03-16 18:09:00,33.9,25.4,29.93,North,0,0.0,-999.0,70,0.00,,,-99.99,,2013-03-17 02:09:00,
2013-03-16 18:14:00,34.3,26.6,29.93,North,0,0.0,-999.0,73,0.00,,,-99.99,,2013-03-17 02:14:00,
2013-03-16 18:19:00,34.2,26.0,29.93,North,0,0.0,-999.0,71,0.00,,,-99.99,,2013-03-17 02:19:00,
2013-03-16 18:24:00,34.0,25.8,29.93,North,0,0.0,-999.0,71,0.00,,,-99.99,,2013-03-17 02:24:00,
2013-03-16 18:29:00,33.9,25.9,29.93,North,0,0.0,-999.0,72,0.00,,,-99.99,,2013-03-17 02:29:00,
2013-03-16 18:35:00,34.1,25.1,29.93,North,0,0.0,-999.0,69,0.00,,,-99.99,,2013-03-17 02:35:00,
2013-03-16 18:40:00,34.0,25.8,29.93,North,0,0.0,-999.0,71,0.00,,,-99.99,,2013-03-17 02:40:00,
2013-03-16 18:45:00,34.3,26.6,29.93,North,0,0.0,-999.0,73,0.00,,,-99.99,,2013-03-17 02:45:00,
2013-03-16 18:50:00,34.0,25.3,29.93,North,0,0.0,-999.0,70,0.00,,,-99.99,,2013-03-17 02:50:00,
2013-03-16 18:55:00,34.2,26.0,29.93,North,0,0.0,-999.0,71,0.00,,,-99.99,,2013-03-17 02:55:00,
2013-03-16 19:00:00,34.3,26.0,29.94,North,0,0.0,-999.0,71,0.00,,,-99.99,,2013-03-17 03:00:00,
2013-03-16 19:05:00,34.1,26.5,29.94,North,0,0.0,-999.0,73,0.00,,,-99.99,,2013-03-17 03:05:00,
2013-03-16 19:10:00,34.2,26.8,29.94,North,0,0.0,-999.0,73,0.00,,,-99.99,,2013-03-17 03:10:00,
2013-03-16 19:15:00,34.1,26.8,29.94,North,0,0.0,-999.0,74,0.00,,,-99.99,,2013-03-17 03:15:00,
2013-03-16 19:20:00,33.9,26.4,29.94,North,0,0.0,-999.0,73,0.00,,,-99.99,,2013-03-17 03:20:00,
2013-03-16 19:25:00,33.7,26.5,29.94,North,0,0.0,-999.0,74,0.00,,,-99.99,,2013-03-17 03:25:00,
2013-03-16 19:30:00,33.2,26.2,29.94,North,0,0.0,-999.0,75,0.00,,,-99.99,,2013-03-17 03:30:00,
2013-03-16 19:35:00,33.1,26.2,29.94,North,0,0.0,-999.0,75,0.00,,,-99.99,,2013-03-17 03:35:00,
2013-03-16 19:41:00,32.8,26.0,29.94,North,0,0.0,-999.0,75,0.00,,,-99.99,,2013-03-17 03:41:00,
2013-03-16 19:47:00,32.6,26.0,29.94,North,0,0.0,-999.0,76,0.00,,,-99.99,,2013-03-17 03:47:00,
2013-03-16 19:52:00,32.5,25.9,29.94,North,0,0.0,-999.0,76,0.00,,,-99.99,,2013-03-17 03:52:00,
2013-03-16 19:57:00,32.2,26.1,29.94,North,0,0.0,-999.0,77,0.00,,,-99.99,,2013-03-17 03:57:00,
2013-03-16 20:00:00,32.1,26.2,29.97,North,0,0.0,-999.0,78,0.00,,,-99.99,,2013-03-17 04:00:00,
2013-03-16 20:01:00,32.3,26.3,29.97,North,0,0.0,-999.0,78,0.00,,,-99.99,,2013-03-17 04:01:00,
2013-03-16 20:02:00,32.6,26.3,29.97,North,0,0.0,-999.0,77,0.00,,,-99.99,,2013-03-17 04:02:00,
2013-03-16 20:05:00,32.5,25.4,29.97,North,0,0.0,-999.0,74,0.00,,,-99.99,,2013-03-17 04:05:00,
2013-03-16 20:10:00,32.3,25.5,29.97,North,0,0.0,-999.0,75,0.00,,,-99.99,,2013-03-17 04:10:00,
2013-03-16 20:15:00,31.9,25.5,29.97,North,0,0.0,-999.0,77,0.00,,,-99.99,,2013-03-17 04:15:00,
2013-03-16 20:20:00,31.6,25.2,29.97,North,0,0.0,-999.0,76,0.00,,,-99.99,,2013-03-17 04:20:00,
2013-03-16 20:25:00,31.2,24.2,29.97,North,0,0.0,-999.0,75,0.00,,,-99.99,,2013-03-17 04:25:00,
2013-03-16 20:30:00,31.1,24.1,29.97,North,0,0.0,-999.0,74,0.00,,,-99.99,,2013-03-17 04:30:00,
2013-03-16 20:35:00,31.1,24.2,29.97,North,0,0.0,-999.0,75,0.00,,,-99.99,,2013-03-17 04:35:00,
2013-03-16 20:40:00,31.1,23.6,29.97,North,0,0.0,-999.0,73,0.00,,,-99.99,,2013-03-17 04:40:00,
2013-03-16 20:45:00,31.1,24.4,29.97,North,0,0.0,-999.0,75,0.00,,,-99.99,,2013-03-17 04:45:00,
2013-03-16 20:50:00,30.9,24.7,29.97,North,0,0.0,-999.0,77,0.00,,,-99.99,,2013-03-17 04:50:00,
2013-03-16 20:55:00,31.2,24.3,29.97,North,0,0.0,-999.0,75,0.00,,,-99.99,,2013-03-17 04:55:00,
2013-03-16 21:00:00,31.4,24.4,29.99,North,0,0.0,-999.0,75,0.00,,,-99.99,,2013-03-17 05:00:00,
2013-03-16 21:07:00,31.1,24.4,29.99,North,0,0.0,-999.0,75,0.00,,,-99.99,,2013-03-17 05:07:00,
2013-03-16 21:12:00,31.2,24.4,29.99,North,0,0.0,-999.0,75,0.00,,,-99.99,,2013-03-17 05:12:00,
2013-03-16 21:17:00,31.4,24.4,29.99,North,0,0.0,-999.0,74,0.00,,,-99.99,,2013-03-17 05:17:00,
2013-03-16 21:22:00,31.7,24.3,29.99,North,0,0.0,-999.0,73,0.00,,,-99.99,,2013-03-17 05:22:00,
2013-03-16 21:27:00,31.7,24.5,29.99,North,0,0.0,-999.0,74,0.00,,,-99.99,,2013-03-17 05:27:00,
2013-03-16 21:32:00,31.9,24.7,29.99,North,0,0.0,-999.0,74,0.00,,,-99.99,,2013-03-17 05:32:00,
2013-03-16 21:37:00,31.9,24.6,29.99,North,0,0.0,-999.0,74,0.00,,,-99.99,,2013-03-17 05:37:00,
2013-03-16 21:42:00,31.8,25.3,29.99,North,0,0.0,-999.0,76,0.00,,,-99.99,,2013-03-17 05:42:00,
2013-03-16 21:47:00,31.6,24.5,29.99,North,0,0.0,-999.0,74,0.00,,,-99.99,,2013-03-17 05:47:00,
2013-03-16 21:52:00,31.6,24.9,29.99,North,0,0.0,-999.0,76,0.00,,,-99.99,,2013-03-17 05:52:00,
2013-03-16 21:57:00,31.4,24.8,29.99,North,0,0.0,-999.0,76,0.00,,,-99.99,,2013-03-17 05:57:00,
2013-03-16 22:02:00,31.1,24.4,30.00,North,0,0.0,-999.0,75,0.00,,,-99.99,,2013-03-17 06:02:00,
2013-03-16 22:07:00,30.9,24.0,30.00,North,0,0.0,-999.0,75,0.00,,,-99.99,,2013-03-17 06:07:00,
2013-03-16 22:12:00,30.7,23.8,30.00,North,0,0.0,-999.0,75,0.00,,,-99.99,,2013-03-17 06:12:00,
2013-03-16 22:17:00,30.4,23.1,30.00,North,0,0.0,-999.0,73,0.00,,,-99.99,,2013-03-17 06:17:00,
2013-03-16 22:22:00,30.1,22.9,30.00,North,0,0.0,-999.0,74,0.00,,,-99.99,,2013-03-17 06:22:00,
2013-03-16 22:27:00,29.7,22.8,30.00,North,0,0.0,-999.0,75,0.00,,,-99.99,,2013-03-17 06:27:00,
2013-03-16 22:32:00,29.7,22.6,30.00,North,0,0.0,-999.0,74,0.00,,,-99.99,,2013-03-17 06:32:00,
2013-03-16 22:37:00,29.7,22.9,30.00,North,0,0.0,-999.0,75,0.00,,,-99.99,,2013-03-17 06:37:00,
2013-03-16 22:42:00,29.7,23.3,30.00,North,0,0.0,-999.0,76,0.00,,,-99.99,,2013-03-17 06:42:00,
2013-03-16 22:49:00,29.9,23.0,30.00,North,0,0.0,-999.0,75,0.00,,,-99.99,,2013-03-17 06:49:00,
2013-03-16 22:54:00,29.7,22.4,30.00,North,0,0.0,-999.0,74,0.00,,,-99.99,,2013-03-17 06:54:00,
2013-03-16 22:59:00,29.7,22.9,30.02,North,0,0.0,-999.0,75,0.00,,,-99.99,,2013-03-17 06:59:00,
2013-03-16 23:04:00,29.8,23.0,30.02,North,0,0.0,-999.0,75,0.00,,,-99.99,,2013-03-17 07:04:00,
2013-03-16 23:09:00,29.7,22.9,30.02,North,0,0.0,-999.0,75,0.00,,,-99.99,,2013-03-17 07:09:00,
2013-03-16 23:14:00,29.8,22.3,30.02,North,0,0.0,-999.0,73,0.00,,,-99.99,,2013-03-17 07:14:00,
2013-03-16 23:19:00,29.5,22.1,30.02,North,0,0.0,-999.0,73,0.00,,,-99.99,,2013-03-17 07:19:00,
2013-03-16 23:24:00,29.7,21.9,30.02,North,0,0.0,-999.0,72,0.00,,,-99.99,,2013-03-17 07:24:00,
2013-03-16 23:29:00,29.4,22.1,30.02,North,0,0.0,-999.0,73,0.00,,,-99.99,,2013-03-17 07:29:00,
2013-03-16 23:34:00,29.0,21.4,30.02,North,0,0.0,-999.0,72,0.00,,,-99.99,,2013-03-17 07:34:00,
2013-03-16 23:39:00,29.0,21.4,30.02,North,0,0.0,-999.0,72,0.00,,,-99.99,,2013-03-17 07:39:00,
2013-03-16 23:44:00,28.8,21.7,30.02,North,0,0.0,-999.0,74,0.00,,,-99.99,,2013-03-17 07:44:00,
2013-03-16 23:49:00,28.7,21.2,30.02,North,0,0.0,-999.0,73,0.00,,,-99.99,,2013-03-17 07:49:00,
2013-03-16 23:54:00,28.6,21.4,30.02,North,0,0.0,-999.0,74,0.00,,,-99.99,,2013-03-17 07:54:00,
2013-03-16 23:59:00,28.4,21.3,30.03,North,0,0.0,-999.0,74,0.00,,,-99.99,,2013-03-17 07:59:00,